Time;durP1;ratioP1;P1;durP2;ratioP2;P2;SDS_P1;SDS_P2;PMS_P1;PMS_P2;Temp;Humidity;BMP_temperature;BMP_pressure;BME280_temperature;BME280_humidity;BME280_pressure;Samples;Min_cycle;Max_cycle;Signal;HPM_P1;HPM_P2
2023/04/01 00:01:59;;;;;;;1.73;1.40;;;10.70;99.90;;;;;;4933417;29;20223;-70
2023/04/01 00:04:26;;;;;;;2.70;1.90;;;10.70;99.90;;;;;;4933444;29;20295;-69
2023/04/01 00:06:52;;;;;;;1.97;1.70;;;10.70;99.90;;;;;;4933659;29;20247;-69
2023/04/01 00:09:19;;;;;;;1.50;1.40;;;10.60;99.90;;;;;;4933734;29;20232;-70
2023/04/01 00:11:46;;;;;;;1.80;1.70;;;10.70;99.90;;;;;;4933738;29;20220;-70
2023/04/01 00:14:13;;;;;;;1.07;1.07;;;10.70;99.90;;;;;;4933574;29;20306;-70
2023/04/01 00:16:40;;;;;;;1.53;1.37;;;10.70;99.90;;;;;;4933641;29;20752;-70
2023/04/01 00:19:08;;;;;;;2.00;1.57;;;10.70;99.90;;;;;;4933979;29;20322;-69
2023/04/01 00:21:36;;;;;;;1.30;1.20;;;10.60;99.90;;;;;;4933531;29;20295;-70
2023/04/01 00:24:03;;;;;;;1.50;1.40;;;10.60;99.90;;;;;;4933481;29;20235;-69
2023/04/01 00:26:30;;;;;;;2.47;1.30;;;10.50;99.90;;;;;;4933702;29;20291;-69
2023/04/01 00:28:57;;;;;;;3.37;1.30;;;10.50;99.90;;;;;;4930051;29;20204;-69
2023/04/01 00:31:24;;;;;;;1.70;1.53;;;10.60;99.90;;;;;;4930107;29;20929;-69
2023/04/01 00:33:52;;;;;;;1.70;1.60;;;10.60;99.90;;;;;;4930054;29;20299;-70
2023/04/01 00:36:22;;;;;;;1.60;1.40;;;10.60;99.90;;;;;;4930957;29;20255;-69
2023/04/01 00:38:50;;;;;;;2.03;1.20;;;10.60;99.90;;;;;;4931173;28;20212;-70
2023/04/01 00:41:18;;;;;;;1.43;1.30;;;10.60;99.90;;;;;;4930741;29;20216;-70
2023/04/01 00:43:46;;;;;;;1.53;1.37;;;10.60;99.90;;;;;;4930318;29;20967;-70
2023/04/01 00:46:16;;;;;;;4.27;1.10;;;10.60;99.90;;;;;;4930506;29;20218;-70
2023/04/01 00:48:48;;;;;;;6.10;3.60;;;10.70;99.90;;;;;;4930307;29;20251;-70
2023/04/01 00:51:18;;;;;;;2.60;2.40;;;10.60;99.90;;;;;;4922386;29;20206;-70
2023/04/01 00:53:50;;;;;;;1.77;1.40;;;10.60;99.90;;;;;;4929989;29;20299;-70
2023/04/01 00:56:22;;;;;;;2.50;1.40;;;10.60;99.90;;;;;;4929962;29;20223;-70
2023/04/01 00:58:52;;;;;;;2.87;1.30;;;10.70;99.90;;;;;;4930722;29;20289;-71
2023/04/01 01:01:21;;;;;;;4.57;1.77;;;10.60;99.90;;;;;;4930385;29;20251;-71
2023/04/01 01:03:48;;;;;;;3.30;2.47;;;10.80;99.90;;;;;;4930285;29;20322;-70
2023/04/01 01:06:28;;;;;;;3.33;2.20;;;10.70;99.90;;;;;;4929952;29;20303;-70
2023/04/01 01:09:11;;;;;;;2.20;2.07;;;10.70;99.90;;;;;;4929808;29;20322;-70
2023/04/01 01:11:42;;;;;;;1.80;1.70;;;10.70;99.90;;;;;;4925761;29;20328;-70
2023/04/01 01:14:20;;;;;;;2.27;2.07;;;10.70;99.90;;;;;;4910898;29;20207;-70
2023/04/01 01:16:53;;;;;;;1.70;1.60;;;10.70;99.90;;;;;;4910636;29;20339;-70
2023/04/01 01:19:43;;;;;;;1.60;1.50;;;10.60;99.90;;;;;;4910971;29;20284;-70
2023/04/01 01:22:45;;;;;;;2.07;1.63;;;10.60;99.90;;;;;;4910699;29;20205;-70
2023/04/01 01:25:26;;;;;;;2.10;1.90;;;10.70;99.90;;;;;;4908591;29;20240;-71
2023/04/01 01:28:01;;;;;;;2.37;1.77;;;10.60;99.90;;;;;;4910255;29;20746;-69
2023/04/01 01:30:44;;;;;;;2.10;1.90;;;10.70;99.90;;;;;;4921445;29;20760;-70
2023/04/01 01:33:33;;;;;;;3.07;1.80;;;10.60;99.90;;;;;;4929229;29;20291;-70
2023/04/01 01:36:05;;;;;;;1.60;1.50;;;10.60;99.90;;;;;;4929742;29;20238;-71
2023/04/01 01:38:35;;;;;;;1.93;1.50;;;10.60;99.90;;;;;;4929762;29;20211;-70
2023/04/01 01:41:04;;;;;;;1.87;1.40;;;10.60;99.90;;;;;;4929070;29;20207;-70
2023/04/01 01:43:33;;;;;;;3.53;1.57;;;10.70;99.90;;;;;;4929164;29;20303;-70
2023/04/01 01:46:04;;;;;;;1.60;1.50;;;10.60;99.90;;;;;;4929392;29;20230;-70
2023/04/01 01:48:32;;;;;;;1.60;1.50;;;10.70;99.90;;;;;;4929134;29;20201;-70
2023/04/01 01:51:00;;;;;;;2.93;1.40;;;10.70;99.90;;;;;;4929234;29;20637;-70
2023/04/01 01:53:28;;;;;;;6.10;5.57;;;10.70;99.90;;;;;;4928698;29;20922;-70
2023/04/01 01:55:55;;;;;;;5.37;4.87;;;10.70;99.90;;;;;;4928900;29;20299;-71
2023/04/01 01:58:28;;;;;;;4.97;4.50;;;10.60;99.90;;;;;;4929076;29;20306;-70
2023/04/01 02:00:58;;;;;;;2.63;2.43;;;10.60;99.90;;;;;;4929207;29;20832;-70
2023/04/01 02:03:27;;;;;;;2.43;2.23;;;10.60;99.90;;;;;;4928673;29;20298;-70
2023/04/01 02:05:56;;;;;;;3.77;3.30;;;10.60;99.90;;;;;;4928448;29;20583;-70
2023/04/01 02:08:27;;;;;;;3.90;3.00;;;10.60;99.90;;;;;;4928371;29;20714;-70
2023/04/01 02:10:59;;;;;;;2.07;1.87;;;10.60;99.90;;;;;;4929042;29;20235;-70
2023/04/01 02:13:31;;;;;;;2.17;1.80;;;10.60;99.90;;;;;;4928858;29;20232;-70
2023/04/01 02:16:02;;;;;;;1.73;1.53;;;10.60;99.90;;;;;;4928251;29;20809;-70
2023/04/01 02:18:34;;;;;;;1.87;1.50;;;10.60;99.90;;;;;;4928691;29;20287;-70
2023/04/01 02:21:02;;;;;;;1.70;1.60;;;10.60;99.90;;;;;;4928733;29;20286;-70
2023/04/01 02:23:30;;;;;;;1.60;1.50;;;10.60;99.90;;;;;;4928479;29;20216;-70
2023/04/01 02:25:58;;;;;;;2.33;1.40;;;10.60;99.90;;;;;;4928523;29;20334;-70
2023/04/01 02:28:26;;;;;;;2.83;1.63;;;10.60;99.90;;;;;;4927237;29;20239;-69
2023/04/01 02:30:53;;;;;;;2.60;2.37;;;10.60;99.90;;;;;;4928539;29;20208;-70
2023/04/01 02:33:21;;;;;;;2.00;1.50;;;10.60;99.90;;;;;;4928386;29;20240;-70
2023/04/01 02:35:48;;;;;;;2.73;2.00;;;10.60;99.90;;;;;;4928238;29;20690;-71
2023/04/01 02:38:16;;;;;;;3.67;1.70;;;10.60;99.90;;;;;;4928167;29;20334;-69
2023/04/01 02:40:48;;;;;;;2.00;1.80;;;10.60;99.90;;;;;;4928560;29;20212;-70
2023/04/01 02:43:17;;;;;;;2.33;1.33;;;10.60;99.90;;;;;;4928316;29;20299;-70
2023/04/01 02:45:44;;;;;;;1.50;1.40;;;10.60;99.90;;;;;;4928029;29;20275;-70
2023/04/01 02:48:12;;;;;;;2.40;1.47;;;10.60;99.90;;;;;;4927858;29;20275;-70
2023/04/01 02:50:39;;;;;;;1.33;1.27;;;10.50;99.90;;;;;;4927742;29;20251;-70
2023/04/01 02:53:07;;;;;;;2.20;1.57;;;10.60;99.90;;;;;;4928105;29;20670;-70
2023/04/01 02:55:34;;;;;;;1.63;1.40;;;10.60;99.90;;;;;;4928358;29;20227;-70
2023/04/01 02:58:01;;;;;;;2.00;1.63;;;10.60;99.90;;;;;;4927708;29;20239;-69
2023/04/01 03:00:29;;;;;;;1.50;1.40;;;10.60;99.90;;;;;;4928094;29;20727;-70
2023/04/01 03:02:56;;;;;;;1.50;1.40;;;10.60;99.90;;;;;;4928278;29;20208;-70
2023/04/01 03:05:23;;;;;;;1.27;1.27;;;10.60;99.90;;;;;;4927719;29;20691;-71
2023/04/01 03:07:50;;;;;;;2.40;1.90;;;10.50;99.90;;;;;;4928393;29;20211;-71
2023/04/01 03:10:17;;;;;;;3.13;1.50;;;10.50;99.90;;;;;;4928285;29;20236;-70
2023/04/01 03:12:44;;;;;;;2.10;1.30;;;10.60;99.90;;;;;;4928399;29;20219;-70
2023/04/01 03:15:13;;;;;;;2.27;1.60;;;10.50;99.90;;;;;;4927494;29;20721;-69
2023/04/01 03:17:43;;;;;;;1.43;1.33;;;10.50;99.90;;;;;;4928090;29;20216;-69
2023/04/01 03:20:11;;;;;;;2.60;1.47;;;10.50;99.90;;;;;;4927762;29;20222;-69
2023/04/01 03:22:38;;;;;;;1.57;1.40;;;10.50;99.90;;;;;;4929163;29;20299;-69
2023/04/01 03:25:07;;;;;;;1.57;1.47;;;10.50;99.90;;;;;;4946825;28;20577;-69
2023/04/01 03:27:35;;;;;;;1.43;1.33;;;10.50;99.90;;;;;;4946631;28;20690;-69
2023/04/01 03:30:02;;;;;;;4.43;1.63;;;10.60;99.90;;;;;;4929412;28;20232;-69
2023/04/01 03:32:28;;;;;;;1.70;1.60;;;10.50;99.90;;;;;;4927947;29;20307;-69
2023/04/01 03:34:57;;;;;;;3.50;1.70;;;10.50;99.90;;;;;;4927517;29;20223;-70
2023/04/01 03:37:24;;;;;;;3.27;2.33;;;10.50;99.90;;;;;;4927726;29;20647;-69
2023/04/01 03:39:52;;;;;;;3.83;2.43;;;10.50;99.90;;;;;;4908699;29;20209;-69
2023/04/01 03:42:19;;;;;;;6.03;5.43;;;10.50;99.90;;;;;;4909014;29;20221;-71
2023/04/01 03:44:46;;;;;;;4.03;3.67;;;10.50;99.90;;;;;;4916988;29;20211;-70
2023/04/01 03:47:13;;;;;;;4.40;2.67;;;10.50;99.90;;;;;;4908599;29;20305;-69
2023/04/01 03:49:40;;;;;;;3.37;2.60;;;10.50;99.90;;;;;;4908790;29;20221;-70
2023/04/01 03:52:11;;;;;;;2.33;1.70;;;10.50;99.90;;;;;;4907662;29;20245;-69
2023/04/01 03:54:38;;;;;;;3.03;2.00;;;10.50;99.90;;;;;;4907497;29;20296;-69
2023/04/01 03:57:06;;;;;;;1.97;1.77;;;10.50;99.90;;;;;;4921788;29;20705;-70
2023/04/01 03:59:33;;;;;;;2.60;1.70;;;10.50;99.90;;;;;;4926113;29;20212;-69
2023/04/01 04:02:00;;;;;;;2.13;1.60;;;10.50;99.90;;;;;;4926133;29;20314;-70
2023/04/01 04:04:27;;;;;;;3.00;1.53;;;10.50;99.90;;;;;;4929218;29;20359;-70
2023/04/01 04:06:55;;;;;;;2.00;1.70;;;10.50;99.90;;;;;;4929636;29;20291;-70
2023/04/01 04:09:23;;;;;;;2.00;1.80;;;10.50;99.90;;;;;;4929586;29;21097;-70
2023/04/01 04:11:50;;;;;;;2.57;1.50;;;10.50;99.90;;;;;;4929634;29;20291;-70
2023/04/01 04:14:18;;;;;;;2.53;1.53;;;10.50;99.90;;;;;;4929470;29;20216;-70
2023/04/01 04:16:45;;;;;;;4.03;1.70;;;10.50;99.90;;;;;;4928906;29;20240;-70
2023/04/01 04:19:12;;;;;;;1.60;1.50;;;10.50;99.90;;;;;;4933181;29;20766;-70
2023/04/01 04:21:39;;;;;;;3.50;1.67;;;10.50;99.90;;;;;;4948621;28;20291;-70
2023/04/01 04:24:07;;;;;;;2.07;1.67;;;10.50;99.90;;;;;;4948131;28;20400;-69
2023/04/01 04:26:35;;;;;;;1.63;1.50;;;10.50;99.90;;;;;;4948604;28;20302;-70
2023/04/01 04:29:03;;;;;;;1.47;1.47;;;10.50;99.90;;;;;;4938630;28;20243;-70
2023/04/01 04:31:30;;;;;;;2.47;1.87;;;10.50;99.90;;;;;;4929511;29;20216;-69
2023/04/01 04:33:57;;;;;;;2.83;1.70;;;10.50;99.90;;;;;;4928839;29;20222;-70
2023/04/01 04:36:24;;;;;;;1.53;1.43;;;10.50;99.90;;;;;;4929158;29;20327;-70
2023/04/01 04:38:51;;;;;;;2.53;1.80;;;10.50;99.90;;;;;;4929189;29;20239;-71
2023/04/01 04:41:21;;;;;;;3.07;1.83;;;10.50;99.90;;;;;;4927202;29;20483;-70
2023/04/01 04:43:54;;;;;;;2.97;1.80;;;10.50;99.90;;;;;;4909919;29;20293;-70
2023/04/01 04:46:22;;;;;;;2.83;1.80;;;10.50;99.90;;;;;;4910160;29;20235;-70
2023/04/01 04:48:49;;;;;;;5.90;2.00;;;10.50;99.90;;;;;;4925359;29;20295;-70
2023/04/01 04:51:17;;;;;;;1.97;1.37;;;10.50;99.90;;;;;;4928546;29;20238;-71
2023/04/01 04:53:44;;;;;;;3.73;1.53;;;10.50;99.90;;;;;;4928324;29;20218;-71
2023/04/01 04:56:11;;;;;;;2.00;1.50;;;10.50;99.90;;;;;;4928544;29;20286;-71
2023/04/01 04:58:38;;;;;;;2.03;1.43;;;10.50;99.90;;;;;;4927969;29;20242;-71
2023/04/01 05:01:12;;;;;;;2.90;1.57;;;10.50;99.90;;;;;;4919402;29;20748;-71
2023/04/01 05:03:39;;;;;;;1.40;1.30;;;10.50;99.90;;;;;;4910816;29;20204;-71
2023/04/01 05:06:07;;;;;;;3.03;1.67;;;10.50;99.90;;;;;;4910222;29;20240;-70
2023/04/01 05:08:34;;;;;;;3.13;1.43;;;10.50;99.90;;;;;;4910389;29;20316;-71
2023/04/01 05:11:01;;;;;;;3.23;1.47;;;10.50;99.90;;;;;;4910566;29;20281;-71
2023/04/01 05:13:28;;;;;;;1.80;1.50;;;10.60;99.90;;;;;;4915250;29;20235;-70
2023/04/01 05:15:55;;;;;;;2.97;1.50;;;10.50;99.90;;;;;;4929414;29;20292;-71
2023/04/01 05:18:23;;;;;;;2.43;1.50;;;10.60;99.90;;;;;;4928987;29;20327;-71
2023/04/01 05:20:53;;;;;;;2.60;1.57;;;10.60;99.90;;;;;;4929228;29;20303;-70
2023/04/01 05:23:21;;;;;;;3.03;1.63;;;10.60;99.90;;;;;;4929365;29;20248;-71
2023/04/01 05:25:48;;;;;;;1.43;1.33;;;10.60;99.90;;;;;;4928916;29;20251;-71
2023/04/01 05:28:15;;;;;;;2.67;1.70;;;10.70;99.90;;;;;;4929250;29;20336;-71
2023/04/01 05:30:43;;;;;;;2.40;1.63;;;10.70;99.90;;;;;;4930044;29;20314;-71
2023/04/01 05:33:11;;;;;;;3.00;1.50;;;10.70;99.90;;;;;;4929883;29;20691;-70
2023/04/01 05:35:40;;;;;;;4.43;1.97;;;10.70;99.90;;;;;;4929654;29;20701;-71
2023/04/01 05:38:07;;;;;;;1.80;1.50;;;10.70;99.90;;;;;;4929917;29;20631;-71
2023/04/01 05:40:35;;;;;;;1.77;1.60;;;10.70;99.90;;;;;;4929763;29;20204;-70
2023/04/01 05:43:02;;;;;;;2.93;1.60;;;10.70;99.90;;;;;;4929357;29;20212;-70
2023/04/01 05:45:29;;;;;;;2.43;1.40;;;10.60;99.90;;;;;;4929528;29;20774;-70
2023/04/01 05:47:56;;;;;;;1.90;1.50;;;10.60;99.90;;;;;;4929924;29;20307;-70
2023/04/01 05:50:23;;;;;;;1.80;1.43;;;10.70;99.90;;;;;;4928809;29;20308;-70
2023/04/01 05:52:51;;;;;;;2.70;1.67;;;10.70;99.90;;;;;;4929254;29;20212;-70
2023/04/01 05:55:18;;;;;;;2.87;1.57;;;10.70;99.90;;;;;;4929261;29;20660;-70
2023/04/01 05:57:46;;;;;;;5.37;1.60;;;10.70;99.90;;;;;;4928674;29;20258;-70
2023/04/01 06:00:14;;;;;;;5.03;1.97;;;10.60;99.90;;;;;;4929173;29;20313;-70
2023/04/01 06:02:41;;;;;;;1.97;1.77;;;10.70;99.90;;;;;;4929166;29;20212;-70
2023/04/01 06:05:15;;;;;;;2.33;1.70;;;10.70;99.90;;;;;;4928779;29;20212;-71
2023/04/01 06:07:42;;;;;;;3.77;1.67;;;10.70;99.90;;;;;;4929237;29;20911;-71
2023/04/01 06:10:19;;;;;;;3.63;1.90;;;10.60;99.90;;;;;;4929464;29;20291;-71
2023/04/01 06:12:58;;;;;;;2.57;1.80;;;10.70;99.90;;;;;;4929088;29;20302;-71
2023/04/01 06:15:35;;;;;;;2.43;1.60;;;10.70;99.90;;;;;;4929074;29;20625;-71
2023/04/01 06:18:36;;;;;;;4.37;1.70;;;10.70;99.90;;;;;;4928551;29;20438;-71
2023/04/01 06:21:13;;;;;;;2.23;1.77;;;10.70;99.90;;;;;;4926094;29;20295;-71
2023/04/01 06:23:57;;;;;;;3.43;1.63;;;10.70;99.90;;;;;;4927840;29;20202;-71
2023/04/01 06:26:38;;;;;;;5.13;2.00;;;10.80;99.90;;;;;;4928083;29;20301;-70
2023/04/01 06:29:29;;;;;;;1.83;1.60;;;10.80;99.90;;;;;;4928792;29;20298;-70
2023/04/01 06:32:30;;;;;;;2.30;1.70;;;10.90;99.90;;;;;;4928662;29;20208;-70
2023/04/01 06:35:21;;;;;;;2.70;1.67;;;10.90;99.90;;;;;;4915916;29;20307;-71
2023/04/01 06:38:09;;;;;;;2.83;2.00;;;11.00;99.90;;;;;;4928174;29;20762;-71
2023/04/01 06:40:56;;;;;;;4.77;2.17;;;11.10;99.90;;;;;;4928399;29;20259;-71
2023/04/01 06:43:35;;;;;;;2.30;1.83;;;11.10;99.90;;;;;;4928493;29;20264;-71
2023/04/01 06:46:11;;;;;;;3.37;2.00;;;11.10;99.90;;;;;;4928320;29;20218;-71
2023/04/01 06:49:03;;;;;;;2.17;1.97;;;11.20;99.90;;;;;;4928000;29;20648;-71
2023/04/01 06:51:39;;;;;;;3.57;2.13;;;11.10;99.90;;;;;;4928339;29;20200;-71
2023/04/01 06:54:12;;;;;;;4.73;1.93;;;11.20;99.90;;;;;;4930674;29;20212;-70
2023/04/01 06:56:43;;;;;;;4.17;1.80;;;11.20;99.90;;;;;;4927824;29;20949;-71
2023/04/01 06:59:16;;;;;;;4.43;1.67;;;11.20;99.90;;;;;;4927977;29;20232;-71
2023/04/01 07:01:47;;;;;;;4.70;1.67;;;11.20;99.90;;;;;;4928003;29;20196;-70
2023/04/01 07:04:17;;;;;;;2.90;1.90;;;11.20;99.90;;;;;;4927746;29;20204;-70
2023/04/01 07:06:49;;;;;;;2.17;1.50;;;11.30;99.90;;;;;;4928072;29;20206;-71
2023/04/01 07:09:20;;;;;;;2.60;1.80;;;11.30;99.90;;;;;;4928109;29;20259;-70
2023/04/01 07:11:47;;;;;;;2.67;2.00;;;11.30;99.90;;;;;;4928175;29;20292;-70
2023/04/01 07:14:20;;;;;;;3.30;1.70;;;11.30;99.90;;;;;;4927847;29;20239;-71
2023/04/01 07:16:52;;;;;;;3.97;1.97;;;11.30;99.90;;;;;;4927841;29;20706;-71
2023/04/01 07:19:25;;;;;;;3.43;1.50;;;11.30;99.90;;;;;;4908428;29;20698;-71
2023/04/01 07:21:57;;;;;;;1.93;1.80;;;11.30;99.90;;;;;;4909011;29;20225;-71
2023/04/01 07:24:30;;;;;;;2.40;1.40;;;11.30;99.90;;;;;;4909062;29;20211;-72
2023/04/01 07:26:58;;;;;;;2.83;1.73;;;11.30;99.90;;;;;;4908752;29;20257;-71
2023/04/01 07:29:27;;;;;;;5.10;2.33;;;11.30;99.90;;;;;;4921577;29;20239;-71
2023/04/01 07:32:10;;;;;;;2.73;1.80;;;11.30;99.90;;;;;;4927843;29;20302;-72
2023/04/01 07:34:47;;;;;;;4.17;1.60;;;11.40;99.90;;;;;;4928160;29;20626;-71
2023/04/01 07:37:18;;;;;;;3.60;1.70;;;11.30;99.90;;;;;;4929594;29;20210;-71
2023/04/01 07:39:55;;;;;;;2.53;1.70;;;11.30;99.90;;;;;;4931593;29;20311;-70
2023/04/01 07:42:30;;;;;;;3.67;1.87;;;11.30;99.90;;;;;;4931669;29;20295;-71
2023/04/01 07:45:10;;;;;;;2.73;1.70;;;11.40;99.90;;;;;;4931402;29;20595;-71
2023/04/01 07:47:52;;;;;;;2.00;1.60;;;11.40;99.90;;;;;;4931631;29;20693;-71
2023/04/01 07:50:26;;;;;;;4.37;1.97;;;11.40;99.90;;;;;;4931692;29;20204;-71
2023/04/01 07:53:08;;;;;;;2.60;1.60;;;11.40;99.90;;;;;;4931582;29;20512;-71
2023/04/01 07:55:42;;;;;;;4.43;1.70;;;11.40;99.90;;;;;;4931250;29;20288;-71
2023/04/01 07:58:15;;;;;;;2.63;1.60;;;11.40;99.90;;;;;;4928555;29;20262;-71
2023/04/01 08:00:49;;;;;;;2.80;1.80;;;11.40;99.90;;;;;;4912607;29;20201;-71
2023/04/01 08:03:39;;;;;;;2.60;2.30;;;11.50;99.90;;;;;;4912506;29;20987;-71
2023/04/01 08:06:13;;;;;;;2.63;1.73;;;11.50;99.90;;;;;;4911955;29;20296;-71
2023/04/01 08:08:51;;;;;;;2.50;2.30;;;11.50;99.90;;;;;;4912226;29;20333;-71
2023/04/01 08:11:32;;;;;;;4.80;2.03;;;11.40;99.90;;;;;;4912589;29;20236;-71
2023/04/01 08:14:10;;;;;;;3.70;1.77;;;11.40;99.90;;;;;;4912361;29;20201;-71
2023/04/01 08:16:45;;;;;;;2.30;1.60;;;11.40;99.90;;;;;;4927163;29;20735;-71
2023/04/01 08:19:23;;;;;;;4.33;1.93;;;11.40;99.90;;;;;;4931166;29;20859;-71
2023/04/01 08:21:53;;;;;;;2.40;1.63;;;11.40;99.90;;;;;;4931069;29;20235;-71
2023/04/01 08:24:30;;;;;;;2.77;1.70;;;11.40;99.90;;;;;;4931175;29;20197;-71
2023/04/01 08:27:02;;;;;;;9.37;7.40;;;11.50;99.90;;;;;;4930200;29;20302;-71
2023/04/01 08:29:37;;;;;;;8.67;7.17;;;11.50;99.90;;;;;;4930958;29;20287;-71
2023/04/01 08:32:10;;;;;;;3.20;2.90;;;11.50;99.90;;;;;;4930181;29;20210;-71
2023/04/01 08:34:40;;;;;;;3.70;1.57;;;11.50;99.90;;;;;;4930854;29;20297;-71
2023/04/01 08:37:12;;;;;;;2.13;1.50;;;11.50;99.90;;;;;;4931182;29;20216;-71
2023/04/01 08:39:45;;;;;;;2.93;1.80;;;11.50;99.90;;;;;;4931213;29;20231;-71
2023/04/01 08:42:45;;;;;;;1.73;1.63;;;11.50;99.90;;;;;;4930467;29;20205;-71
2023/04/01 08:45:36;;;;;;;3.57;1.80;;;11.50;99.90;;;;;;4930187;29;20820;-71
2023/04/01 08:48:45;;;;;;;2.77;2.10;;;11.60;99.90;;;;;;4930022;29;20204;-71
2023/04/01 08:51:51;;;;;;;3.67;2.00;;;11.60;99.90;;;;;;4887483;29;20301;-71
2023/04/01 08:54:53;;;;;;;2.37;2.17;;;11.70;99.90;;;;;;4882402;29;20327;-71
2023/04/01 08:57:33;;;;;;;2.50;2.07;;;11.70;99.90;;;;;;4902898;29;20629;-71
2023/04/01 09:00:15;;;;;;;1.87;1.60;;;11.60;99.90;;;;;;4929624;29;20759;-71
2023/04/01 09:02:56;;;;;;;1.80;1.70;;;11.60;99.90;;;;;;4930458;29;20215;-71
2023/04/01 09:05:45;;;;;;;2.13;1.53;;;11.50;99.90;;;;;;4930313;29;20216;-71
2023/04/01 09:08:26;;;;;;;1.30;1.30;;;11.40;99.90;;;;;;4910767;29;20232;-71
2023/04/01 09:11:13;;;;;;;1.93;1.83;;;11.20;99.90;;;;;;4925646;29;20279;-71
2023/04/01 09:14:16;;;;;;;1.87;1.77;;;11.10;99.90;;;;;;4930131;29;20276;-71
2023/04/01 09:17:09;;;;;;;2.20;2.10;;;11.10;99.90;;;;;;4929985;29;20346;-71
2023/04/01 09:19:51;;;;;;;2.40;2.30;;;11.00;99.90;;;;;;4929777;29;20290;-71
2023/04/01 09:22:29;;;;;;;3.03;2.80;;;11.00;99.90;;;;;;4930032;29;20292;-71
2023/04/01 09:25:38;;;;;;;3.00;2.80;;;11.00;99.90;;;;;;4929949;29;20662;-71
2023/04/01 09:28:13;;;;;;;3.00;2.80;;;11.00;99.90;;;;;;4919292;29;20216;-71
2023/04/01 09:31:04;;;;;;;3.20;3.00;;;10.90;99.90;;;;;;4929272;29;20718;-71
2023/04/01 09:34:02;;;;;;;4.07;3.27;;;10.90;99.90;;;;;;4927107;29;20312;-71
2023/04/01 09:36:47;;;;;;;3.93;3.63;;;10.80;99.90;;;;;;4929908;29;20287;-71
2023/04/01 09:39:35;;;;;;;3.57;3.37;;;10.80;99.90;;;;;;4929384;29;20224;-71
2023/04/01 09:42:17;;;;;;;3.90;3.60;;;10.80;99.90;;;;;;4936584;29;20206;-71
2023/04/01 09:44:50;;;;;;;4.33;3.93;;;10.80;99.90;;;;;;4948547;28;20291;-71
2023/04/01 09:47:32;;;;;;;4.40;4.10;;;10.80;99.90;;;;;;4948564;28;20283;-71
2023/04/01 09:50:18;;;;;;;4.57;4.17;;;10.80;99.90;;;;;;4940530;28;20232;-71
2023/04/01 09:52:50;;;;;;;4.70;4.40;;;10.80;99.90;;;;;;4929253;29;21001;-71
2023/04/01 09:55:53;;;;;;;4.93;4.63;;;10.80;99.90;;;;;;4929449;29;20295;-71
2023/04/01 09:58:45;;;;;;;5.33;5.03;;;10.90;99.90;;;;;;4928909;29;20252;-71
2023/04/01 10:01:40;;;;;;;6.30;5.77;;;10.90;99.90;;;;;;4928473;29;20260;-71
2023/04/01 10:04:40;;;;;;;5.70;5.30;;;10.90;99.90;;;;;;4929336;29;20207;-71
2023/04/01 10:07:45;;;;;;;6.20;5.63;;;10.90;99.90;;;;;;4929379;29;20290;-71
2023/04/01 10:10:58;;;;;;;6.47;5.97;;;10.90;99.90;;;;;;4928948;29;20200;-71
2023/04/01 10:13:51;;;;;;;6.07;5.63;;;10.80;99.90;;;;;;4888569;29;20297;-71
2023/04/01 10:16:51;;;;;;;7.00;6.40;;;10.80;99.90;;;;;;4888058;29;20884;-71
2023/04/01 10:19:41;;;;;;;6.30;5.80;;;10.90;99.90;;;;;;4924051;29;20344;-71
2023/04/01 10:22:31;;;;;;;6.80;6.20;;;10.80;99.90;;;;;;4928788;29;20283;-71
2023/04/01 10:25:29;;;;;;;7.03;6.33;;;10.80;99.90;;;;;;4928600;29;20203;-71
2023/04/01 10:28:32;;;;;;;7.63;7.03;;;10.90;99.90;;;;;;4928329;29;20260;-71
2023/04/01 10:31:28;;;;;;;7.63;7.03;;;10.90;99.90;;;;;;4924796;29;20290;-71
2023/04/01 10:34:18;;;;;;;7.70;7.00;;;10.90;99.90;;;;;;4927429;29;20248;-71
2023/04/01 10:36:53;;;;;;;6.57;6.10;;;10.90;99.90;;;;;;4928488;29;20283;-71
2023/04/01 10:39:48;;;;;;;7.30;6.70;;;10.90;99.90;;;;;;4928745;29;20263;-71
2023/04/01 10:42:56;;;;;;;7.10;6.50;;;10.90;99.90;;;;;;4928679;29;20738;-71
2023/04/01 10:46:01;;;;;;;7.40;6.90;;;10.80;99.90;;;;;;4911691;29;20220;-71
2023/04/01 10:49:00;;;;;;;7.87;7.27;;;10.80;99.90;;;;;;4928374;29;20204;-71
2023/04/01 10:51:48;;;;;;;6.37;5.97;;;10.80;99.90;;;;;;4909574;29;20240;-71
2023/04/01 10:54:45;;;;;;;6.00;5.60;;;10.80;99.90;;;;;;4926513;29;20741;-70
2023/04/01 10:57:36;;;;;;;6.23;5.83;;;10.70;99.90;;;;;;4928501;29;20291;-71
2023/04/01 11:00:28;;;;;;;6.17;5.73;;;10.70;99.90;;;;;;4927848;29;20671;-71
2023/04/01 11:03:25;;;;;;;7.17;6.67;;;10.60;99.90;;;;;;4928170;29;20204;-71
2023/04/01 11:06:44;;;;;;;6.60;6.20;;;10.60;99.90;;;;;;4928442;29;20200;-70
2023/04/01 11:09:44;;;;;;;7.03;6.53;;;10.70;99.90;;;;;;4922380;29;20320;-71
2023/04/01 11:12:34;;;;;;;6.67;6.27;;;10.70;99.90;;;;;;4909142;29;20348;-71
2023/04/01 11:15:27;;;;;;;6.03;5.63;;;10.60;99.90;;;;;;4910979;29;20280;-71
2023/04/01 11:18:36;;;;;;;6.50;6.00;;;10.70;99.90;;;;;;4928507;29;20204;-71
2023/04/01 11:21:49;;;;;;;5.90;5.50;;;10.70;99.90;;;;;;4904230;29;20222;-71
2023/04/01 11:24:34;;;;;;;5.50;5.20;;;10.60;99.90;;;;;;4927913;29;20259;-71
2023/04/01 11:27:13;;;;;;;5.10;4.70;;;10.60;99.90;;;;;;4928303;29;20232;-71
2023/04/01 11:30:11;;;;;;;5.40;5.00;;;10.60;99.90;;;;;;4928267;29;20644;-71
2023/04/01 11:33:04;;;;;;;5.20;4.90;;;10.60;99.90;;;;;;4928341;29;20275;-71
2023/04/01 11:35:48;;;;;;;5.67;5.27;;;10.60;99.90;;;;;;4903588;29;20303;-70
2023/04/01 11:38:34;;;;;;;4.27;4.07;;;10.60;99.90;;;;;;4915988;29;20215;-71
2023/04/01 11:41:13;;;;;;;4.70;4.40;;;10.60;99.90;;;;;;4909131;29;20251;-71
2023/04/01 11:43:47;;;;;;;4.47;4.20;;;10.50;99.90;;;;;;4909075;29;20295;-71
2023/04/01 11:46:22;;;;;;;4.23;4.03;;;10.50;99.90;;;;;;4908986;29;20291;-71
2023/04/01 11:49:01;;;;;;;4.83;4.53;;;10.50;99.90;;;;;;4925175;29;20283;-71
2023/04/01 11:52:01;;;;;;;5.00;4.70;;;10.50;99.90;;;;;;4947425;28;20199;-71
2023/04/01 11:54:55;;;;;;;5.00;4.70;;;10.50;99.90;;;;;;4939029;28;20235;-71
2023/04/01 11:57:40;;;;;;;5.20;4.90;;;10.50;99.90;;;;;;4928091;29;20197;-71
2023/04/01 12:00:23;;;;;;;4.83;4.53;;;10.50;99.90;;;;;;4927438;29;20655;-71
2023/04/01 12:03:06;;;;;;;5.30;5.00;;;10.50;99.90;;;;;;4928304;29;20254;-71
2023/04/01 12:05:44;;;;;;;5.13;4.83;;;10.50;99.90;;;;;;4927894;29;20204;-71
2023/04/01 12:08:21;;;;;;;4.27;4.07;;;10.60;99.90;;;;;;4927532;29;20785;-70
2023/04/01 12:10:56;;;;;;;5.13;4.80;;;10.50;99.90;;;;;;4928091;29;20224;-71
2023/04/01 12:13:33;;;;;;;5.97;5.53;;;10.50;99.90;;;;;;4927879;29;20212;-71
2023/04/01 12:16:14;;;;;;;5.63;5.33;;;10.50;99.90;;;;;;4927140;29;20626;-71
2023/04/01 12:18:48;;;;;;;5.60;5.30;;;10.50;99.90;;;;;;4927357;29;20243;-71
2023/04/01 12:21:24;;;;;;;5.30;5.00;;;10.50;99.90;;;;;;4927511;29;20255;-71
2023/04/01 12:24:21;;;;;;;6.37;5.97;;;10.40;99.90;;;;;;4928757;29;20214;-70
2023/04/01 12:27:00;;;;;;;5.70;5.40;;;10.50;99.90;;;;;;4931332;29;20303;-71
2023/04/01 12:29:54;;;;;;;5.10;4.80;;;10.50;99.90;;;;;;4931194;29;20709;-71
2023/04/01 12:32:32;;;;;;;5.43;5.13;;;10.40;99.90;;;;;;4927027;29;20215;-71
2023/04/01 12:35:17;;;;;;;5.30;5.00;;;10.40;99.90;;;;;;4931039;29;20219;-70
2023/04/01 12:37:51;;;;;;;6.07;5.67;;;10.40;99.90;;;;;;4930601;29;20207;-71
2023/04/01 12:40:52;;;;;;;5.80;5.40;;;10.30;99.90;;;;;;4931122;29;20231;-70
2023/04/01 12:44:09;;;;;;;6.63;6.20;;;10.30;99.90;;;;;;4931147;29;20204;-71
2023/04/01 12:46:53;;;;;;;6.07;5.70;;;10.20;99.90;;;;;;4917687;29;20276;-71
2023/04/01 12:49:54;;;;;;;6.40;5.90;;;10.20;99.90;;;;;;4911422;29;20291;-71
2023/04/01 12:52:32;;;;;;;5.87;5.53;;;10.10;99.90;;;;;;4888054;29;20304;-70
2023/04/01 12:55:32;;;;;;;5.50;5.20;;;10.10;99.90;;;;;;4911905;29;20252;-71
2023/04/01 12:58:31;;;;;;;5.43;5.13;;;10.00;99.90;;;;;;4929749;29;20295;-71
2023/04/01 13:01:16;;;;;;;6.07;5.57;;;10.00;99.90;;;;;;4930416;29;20322;-71
2023/04/01 13:04:03;;;;;;;6.03;5.63;;;10.00;99.90;;;;;;4930874;29;20200;-71
2023/04/01 13:06:41;;;;;;;5.90;5.60;;;10.10;99.90;;;;;;4930398;29;20318;-71
2023/04/01 13:09:19;;;;;;;5.77;5.47;;;10.10;99.90;;;;;;4930022;29;20204;-71
2023/04/01 13:12:01;;;;;;;5.80;5.40;;;10.00;99.90;;;;;;4930433;29;20287;-71
2023/04/01 13:14:57;;;;;;;5.90;5.50;;;10.00;99.90;;;;;;4930105;29;20299;-70
2023/04/01 13:17:31;;;;;;;6.20;5.80;;;10.00;99.90;;;;;;4909813;29;20306;-71
2023/04/01 13:20:03;;;;;;;5.80;5.47;;;10.00;99.90;;;;;;4929760;29;20314;-71
2023/04/01 13:22:46;;;;;;;6.10;5.70;;;10.00;99.90;;;;;;4930235;29;20373;-70
2023/04/01 13:25:27;;;;;;;6.53;6.03;;;10.00;99.90;;;;;;4930062;29;20224;-71
2023/04/01 13:28:04;;;;;;;6.87;6.27;;;10.00;99.90;;;;;;4929740;29;20204;-71
2023/04/01 13:30:38;;;;;;;6.70;6.20;;;10.00;99.90;;;;;;4929454;29;20608;-71
2023/04/01 13:33:14;;;;;;;6.63;6.23;;;10.00;99.90;;;;;;4929772;29;20252;-70
2023/04/01 13:35:47;;;;;;;6.03;5.63;;;9.90;99.90;;;;;;4929248;29;20196;-71
2023/04/01 13:38:32;;;;;;;5.93;5.57;;;10.00;99.90;;;;;;4929432;29;20239;-71
2023/04/01 13:41:06;;;;;;;6.30;5.90;;;10.00;99.90;;;;;;4929116;29;20638;-70